Terminal Aerodrome Forecast
Issued by NWS Amarillo, TX

Home | Current Version | Previous Version | Text Only | Print | Product List | Glossary On
Versions: 1 2 3 4 5 6 7 8 9 10 11 12 13 14 15 16
000
FTUS44 KAMA 030500 AAA
TAFAMA
TAF AMD
KAMA 030544Z 0306/0406 10012KT P6SM VCTS BKN060CB
      TEMPO 0306/0308 VRB15G25KT -TSRA
     FM030800 09010KT P6SM SCT060
     FM031600 07008KT P6SM SCT090 BKN200
     FM032000 10010G19KT P6SM BKN080 OVC200
     FM040200 15006KT P6SM OVC200=

USA.gov is the U.S. government's official web portal to all federal, state and local government web resources and services.